sensor_id;sensor_type;location;lat;lon;timestamp;P1;durP1;ratioP1;P2;durP2;ratioP2
19004;SDS011;9635;52.078;8.648;2023-04-03T00:02:52;7.10;;;3.15;;
19004;SDS011;9635;52.078;8.648;2023-04-03T00:07:56;3.17;;;1.45;;
19004;SDS011;9635;52.078;8.648;2023-04-03T00:12:59;4.10;;;1.77;;
19004;SDS011;9635;52.078;8.648;2023-04-03T00:18:02;3.95;;;1.42;;
19004;SDS011;9635;52.078;8.648;2023-04-03T00:23:07;5.03;;;1.45;;
19004;SDS011;9635;52.078;8.648;2023-04-03T00:28:10;5.13;;;1.67;;
19004;SDS011;9635;52.078;8.648;2023-04-03T00:33:13;4.10;;;1.40;;
19004;SDS011;9635;52.078;8.648;2023-04-03T00:38:17;5.13;;;1.10;;
19004;SDS011;9635;52.078;8.648;2023-04-03T00:43:21;4.78;;;1.50;;
19004;SDS011;9635;52.078;8.648;2023-04-03T00:48:27;6.40;;;1.20;;
19004;SDS011;9635;52.078;8.648;2023-04-03T00:53:35;3.85;;;1.27;;
19004;SDS011;9635;52.078;8.648;2023-04-03T00:58:42;6.40;;;1.20;;
19004;SDS011;9635;52.078;8.648;2023-04-03T01:03:49;5.85;;;1.65;;
19004;SDS011;9635;52.078;8.648;2023-04-03T01:08:54;7.50;;;2.53;;
19004;SDS011;9635;52.078;8.648;2023-04-03T01:13:57;3.03;;;1.63;;
19004;SDS011;9635;52.078;8.648;2023-04-03T01:19:01;5.97;;;1.63;;
19004;SDS011;9635;52.078;8.648;2023-04-03T01:24:16;4.00;;;1.30;;
19004;SDS011;9635;52.078;8.648;2023-04-03T01:29:28;6.15;;;1.80;;
19004;SDS011;9635;52.078;8.648;2023-04-03T01:34:33;2.58;;;1.23;;
19004;SDS011;9635;52.078;8.648;2023-04-03T01:39:36;4.65;;;1.38;;
19004;SDS011;9635;52.078;8.648;2023-04-03T01:44:39;6.10;;;1.70;;
19004;SDS011;9635;52.078;8.648;2023-04-03T01:49:43;6.05;;;1.38;;
19004;SDS011;9635;52.078;8.648;2023-04-03T01:54:46;4.07;;;1.67;;
19004;SDS011;9635;52.078;8.648;2023-04-03T01:59:49;10.15;;;1.70;;
19004;SDS011;9635;52.078;8.648;2023-04-03T02:04:54;8.55;;;1.35;;
19004;SDS011;9635;52.078;8.648;2023-04-03T02:09:57;5.70;;;1.50;;
19004;SDS011;9635;52.078;8.648;2023-04-03T02:15:00;4.65;;;1.20;;
19004;SDS011;9635;52.078;8.648;2023-04-03T02:20:05;9.30;;;1.42;;
19004;SDS011;9635;52.078;8.648;2023-04-03T02:25:08;4.50;;;1.65;;
19004;SDS011;9635;52.078;8.648;2023-04-03T02:30:12;8.25;;;1.40;;
19004;SDS011;9635;52.078;8.648;2023-04-03T02:35:17;4.65;;;1.30;;
19004;SDS011;9635;52.078;8.648;2023-04-03T02:40:23;7.97;;;1.48;;
19004;SDS011;9635;52.078;8.648;2023-04-03T02:45:26;4.30;;;1.27;;
19004;SDS011;9635;52.078;8.648;2023-04-03T02:50:30;7.00;;;1.40;;
19004;SDS011;9635;52.078;8.648;2023-04-03T02:55:33;5.10;;;1.30;;
19004;SDS011;9635;52.078;8.648;2023-04-03T03:00:36;6.88;;;1.52;;
19004;SDS011;9635;52.078;8.648;2023-04-03T03:05:41;4.35;;;1.70;;
19004;SDS011;9635;52.078;8.648;2023-04-03T03:10:45;1.55;;;1.00;;
19004;SDS011;9635;52.078;8.648;2023-04-03T03:15:48;4.80;;;1.30;;
19004;SDS011;9635;52.078;8.648;2023-04-03T03:20:53;6.18;;;1.33;;
19004;SDS011;9635;52.078;8.648;2023-04-03T03:25:57;4.43;;;1.38;;
19004;SDS011;9635;52.078;8.648;2023-04-03T03:31:01;5.68;;;1.52;;
19004;SDS011;9635;52.078;8.648;2023-04-03T03:36:07;11.18;;;1.92;;
19004;SDS011;9635;52.078;8.648;2023-04-03T03:41:10;8.75;;;1.95;;
19004;SDS011;9635;52.078;8.648;2023-04-03T03:46:15;6.82;;;1.48;;
19004;SDS011;9635;52.078;8.648;2023-04-03T03:51:20;7.03;;;3.42;;
19004;SDS011;9635;52.078;8.648;2023-04-03T03:56:23;7.18;;;2.05;;
19004;SDS011;9635;52.078;8.648;2023-04-03T04:01:26;4.22;;;1.45;;
19004;SDS011;9635;52.078;8.648;2023-04-03T04:06:31;7.50;;;1.50;;
19004;SDS011;9635;52.078;8.648;2023-04-03T04:11:38;8.57;;;1.35;;
19004;SDS011;9635;52.078;8.648;2023-04-03T04:16:44;11.02;;;1.58;;
19004;SDS011;9635;52.078;8.648;2023-04-03T04:21:54;7.38;;;1.88;;
19004;SDS011;9635;52.078;8.648;2023-04-03T04:26:58;6.45;;;2.00;;
19004;SDS011;9635;52.078;8.648;2023-04-03T04:32:01;4.93;;;1.48;;
19004;SDS011;9635;52.078;8.648;2023-04-03T04:37:05;9.02;;;1.45;;
19004;SDS011;9635;52.078;8.648;2023-04-03T04:42:08;6.15;;;1.77;;
19004;SDS011;9635;52.078;8.648;2023-04-03T04:47:17;5.35;;;1.83;;
19004;SDS011;9635;52.078;8.648;2023-04-03T04:52:22;8.10;;;1.83;;
19004;SDS011;9635;52.078;8.648;2023-04-03T04:57:25;3.67;;;1.60;;
19004;SDS011;9635;52.078;8.648;2023-04-03T05:02:31;7.00;;;2.20;;
19004;SDS011;9635;52.078;8.648;2023-04-03T05:07:35;6.28;;;1.98;;
19004;SDS011;9635;52.078;8.648;2023-04-03T05:12:39;6.82;;;1.60;;
19004;SDS011;9635;52.078;8.648;2023-04-03T05:17:42;7.43;;;1.83;;
19004;SDS011;9635;52.078;8.648;2023-04-03T05:22:49;4.30;;;1.52;;
19004;SDS011;9635;52.078;8.648;2023-04-03T05:27:52;8.77;;;2.00;;
19004;SDS011;9635;52.078;8.648;2023-04-03T05:32:55;3.95;;;1.52;;
19004;SDS011;9635;52.078;8.648;2023-04-03T05:38:09;7.40;;;1.75;;
19004;SDS011;9635;52.078;8.648;2023-04-03T05:43:13;3.92;;;1.48;;
19004;SDS011;9635;52.078;8.648;2023-04-03T05:48:17;4.80;;;1.60;;
19004;SDS011;9635;52.078;8.648;2023-04-03T05:53:23;7.05;;;2.00;;
19004;SDS011;9635;52.078;8.648;2023-04-03T05:58:34;4.72;;;1.65;;
19004;SDS011;9635;52.078;8.648;2023-04-03T06:03:37;5.38;;;1.55;;
19004;SDS011;9635;52.078;8.648;2023-04-03T06:08:44;6.40;;;1.60;;
19004;SDS011;9635;52.078;8.648;2023-04-03T06:13:47;6.20;;;1.98;;
19004;SDS011;9635;52.078;8.648;2023-04-03T06:18:51;9.88;;;1.88;;
19004;SDS011;9635;52.078;8.648;2023-04-03T06:23:56;4.03;;;1.45;;
19004;SDS011;9635;52.078;8.648;2023-04-03T06:28:59;4.38;;;1.33;;
19004;SDS011;9635;52.078;8.648;2023-04-03T06:34:02;9.00;;;1.65;;
19004;SDS011;9635;52.078;8.648;2023-04-03T06:39:11;9.00;;;2.03;;
19004;SDS011;9635;52.078;8.648;2023-04-03T06:44:16;6.10;;;1.40;;
19004;SDS011;9635;52.078;8.648;2023-04-03T06:49:18;5.47;;;1.50;;
19004;SDS011;9635;52.078;8.648;2023-04-03T06:54:23;8.55;;;1.30;;
19004;SDS011;9635;52.078;8.648;2023-04-03T06:59:25;4.40;;;1.23;;
19004;SDS011;9635;52.078;8.648;2023-04-03T07:04:28;6.00;;;1.63;;
19004;SDS011;9635;52.078;8.648;2023-04-03T07:09:33;3.42;;;1.20;;
19004;SDS011;9635;52.078;8.648;2023-04-03T07:14:36;8.20;;;1.33;;
19004;SDS011;9635;52.078;8.648;2023-04-03T07:19:39;5.20;;;1.35;;
19004;SDS011;9635;52.078;8.648;2023-04-03T07:24:43;8.02;;;1.40;;
19004;SDS011;9635;52.078;8.648;2023-04-03T07:29:47;3.17;;;1.30;;
19004;SDS011;9635;52.078;8.648;2023-04-03T07:34:51;5.90;;;1.10;;
19004;SDS011;9635;52.078;8.648;2023-04-03T07:39:55;9.10;;;2.60;;
19004;SDS011;9635;52.078;8.648;2023-04-03T07:44:59;11.50;;;1.23;;
19004;SDS011;9635;52.078;8.648;2023-04-03T07:50:03;6.80;;;1.77;;
19004;SDS011;9635;52.078;8.648;2023-04-03T07:55:08;3.88;;;1.40;;
19004;SDS011;9635;52.078;8.648;2023-04-03T08:00:11;5.53;;;1.83;;
19004;SDS011;9635;52.078;8.648;2023-04-03T08:05:15;2.92;;;1.20;;
19004;SDS011;9635;52.078;8.648;2023-04-03T08:10:19;8.70;;;1.20;;
19004;SDS011;9635;52.078;8.648;2023-04-03T08:15:22;6.43;;;1.33;;
19004;SDS011;9635;52.078;8.648;2023-04-03T08:20:25;3.85;;;1.20;;
19004;SDS011;9635;52.078;8.648;2023-04-03T08:25:30;5.95;;;1.33;;
19004;SDS011;9635;52.078;8.648;2023-04-03T08:30:33;3.70;;;1.20;;
19004;SDS011;9635;52.078;8.648;2023-04-03T08:35:38;4.28;;;1.20;;
19004;SDS011;9635;52.078;8.648;2023-04-03T08:40:43;2.40;;;1.08;;
19004;SDS011;9635;52.078;8.648;2023-04-03T08:45:48;2.88;;;1.10;;
19004;SDS011;9635;52.078;8.648;2023-04-03T08:50:54;3.08;;;1.05;;
19004;SDS011;9635;52.078;8.648;2023-04-03T08:56:07;4.40;;;1.40;;
19004;SDS011;9635;52.078;8.648;2023-04-03T09:01:15;5.35;;;1.30;;
19004;SDS011;9635;52.078;8.648;2023-04-03T09:06:22;3.15;;;1.25;;
19004;SDS011;9635;52.078;8.648;2023-04-03T09:11:35;2.50;;;1.10;;
19004;SDS011;9635;52.078;8.648;2023-04-03T09:16:50;2.17;;;1.00;;
19004;SDS011;9635;52.078;8.648;2023-04-03T09:21:58;3.95;;;0.90;;
19004;SDS011;9635;52.078;8.648;2023-04-03T09:27:06;3.17;;;1.00;;
19004;SDS011;9635;52.078;8.648;2023-04-03T09:32:18;5.47;;;1.50;;
19004;SDS011;9635;52.078;8.648;2023-04-03T09:37:33;4.47;;;1.25;;
19004;SDS011;9635;52.078;8.648;2023-04-03T09:42:41;3.88;;;1.15;;
19004;SDS011;9635;52.078;8.648;2023-04-03T09:48:05;2.33;;;0.95;;
19004;SDS011;9635;52.078;8.648;2023-04-03T09:53:25;5.25;;;1.00;;
19004;SDS011;9635;52.078;8.648;2023-04-03T09:58:32;7.55;;;1.00;;
19004;SDS011;9635;52.078;8.648;2023-04-03T10:04:02;3.13;;;1.02;;
19004;SDS011;9635;52.078;8.648;2023-04-03T10:09:17;2.88;;;0.95;;
19004;SDS011;9635;52.078;8.648;2023-04-03T10:14:24;3.40;;;0.82;;
19004;SDS011;9635;52.078;8.648;2023-04-03T10:19:31;1.85;;;1.10;;
19004;SDS011;9635;52.078;8.648;2023-04-03T10:24:41;3.15;;;1.08;;
19004;SDS011;9635;52.078;8.648;2023-04-03T10:29:51;1.63;;;0.68;;
19004;SDS011;9635;52.078;8.648;2023-04-03T10:35:02;3.05;;;1.10;;
19004;SDS011;9635;52.078;8.648;2023-04-03T10:40:18;3.80;;;1.30;;
19004;SDS011;9635;52.078;8.648;2023-04-03T10:45:29;3.40;;;1.02;;
19004;SDS011;9635;52.078;8.648;2023-04-03T10:50:43;4.18;;;1.20;;
19004;SDS011;9635;52.078;8.648;2023-04-03T10:55:56;3.22;;;1.15;;
19004;SDS011;9635;52.078;8.648;2023-04-03T11:01:07;3.47;;;1.15;;
19004;SDS011;9635;52.078;8.648;2023-04-03T11:06:15;6.45;;;1.15;;
19004;SDS011;9635;52.078;8.648;2023-04-03T11:11:20;2.58;;;1.20;;
19004;SDS011;9635;52.078;8.648;2023-04-03T11:16:30;4.40;;;1.42;;
19004;SDS011;9635;52.078;8.648;2023-04-03T11:21:52;3.72;;;0.98;;
19004;SDS011;9635;52.078;8.648;2023-04-03T11:27:00;2.15;;;0.88;;
19004;SDS011;9635;52.078;8.648;2023-04-03T11:32:11;3.13;;;1.00;;
19004;SDS011;9635;52.078;8.648;2023-04-03T11:37:31;3.15;;;0.80;;
19004;SDS011;9635;52.078;8.648;2023-04-03T11:42:37;4.68;;;1.10;;
19004;SDS011;9635;52.078;8.648;2023-04-03T11:47:46;2.08;;;1.13;;
19004;SDS011;9635;52.078;8.648;2023-04-03T11:52:59;5.85;;;1.20;;
19004;SDS011;9635;52.078;8.648;2023-04-03T11:58:11;3.03;;;0.88;;
19004;SDS011;9635;52.078;8.648;2023-04-03T12:09:15;2.10;;;0.90;;
19004;SDS011;9635;52.078;8.648;2023-04-03T12:14:26;2.33;;;1.33;;
19004;SDS011;9635;52.078;8.648;2023-04-03T12:19:31;3.72;;;1.58;;
19004;SDS011;9635;52.078;8.648;2023-04-03T12:24:45;6.45;;;1.20;;
19004;SDS011;9635;52.078;8.648;2023-04-03T12:29:51;5.15;;;1.20;;
19004;SDS011;9635;52.078;8.648;2023-04-03T12:35:03;3.92;;;1.02;;
19004;SDS011;9635;52.078;8.648;2023-04-03T12:40:19;3.80;;;1.60;;
19004;SDS011;9635;52.078;8.648;2023-04-03T12:45:27;3.55;;;1.00;;
19004;SDS011;9635;52.078;8.648;2023-04-03T12:50:31;4.60;;;1.02;;
19004;SDS011;9635;52.078;8.648;2023-04-03T12:55:36;2.38;;;0.70;;
19004;SDS011;9635;52.078;8.648;2023-04-03T13:00:39;2.78;;;0.68;;
19004;SDS011;9635;52.078;8.648;2023-04-03T13:05:44;3.22;;;1.05;;
19004;SDS011;9635;52.078;8.648;2023-04-03T13:10:53;3.45;;;1.13;;
19004;SDS011;9635;52.078;8.648;2023-04-03T13:15:59;1.33;;;0.75;;
19004;SDS011;9635;52.078;8.648;2023-04-03T13:21:03;1.60;;;0.95;;
19004;SDS011;9635;52.078;8.648;2023-04-03T13:26:10;2.70;;;1.00;;
19004;SDS011;9635;52.078;8.648;2023-04-03T13:31:18;3.75;;;0.90;;
19004;SDS011;9635;52.078;8.648;2023-04-03T13:36:35;2.42;;;0.75;;
19004;SDS011;9635;52.078;8.648;2023-04-03T13:41:45;2.72;;;1.38;;
19004;SDS011;9635;52.078;8.648;2023-04-03T13:46:49;2.78;;;1.20;;
19004;SDS011;9635;52.078;8.648;2023-04-03T13:51:53;2.60;;;0.90;;
19004;SDS011;9635;52.078;8.648;2023-04-03T13:57:13;3.35;;;1.00;;
19004;SDS011;9635;52.078;8.648;2023-04-03T14:02:18;2.65;;;1.30;;
19004;SDS011;9635;52.078;8.648;2023-04-03T14:07:23;3.97;;;1.48;;
19004;SDS011;9635;52.078;8.648;2023-04-03T14:12:29;2.47;;;1.05;;
19004;SDS011;9635;52.078;8.648;2023-04-03T14:17:36;2.55;;;1.00;;
19004;SDS011;9635;52.078;8.648;2023-04-03T14:22:39;4.53;;;1.08;;
19004;SDS011;9635;52.078;8.648;2023-04-03T14:27:44;3.22;;;1.08;;
19004;SDS011;9635;52.078;8.648;2023-04-03T14:32:50;3.05;;;1.30;;
19004;SDS011;9635;52.078;8.648;2023-04-03T14:37:53;2.92;;;0.90;;
19004;SDS011;9635;52.078;8.648;2023-04-03T14:42:58;4.95;;;1.05;;
19004;SDS011;9635;52.078;8.648;2023-04-03T14:48:01;1.85;;;0.93;;
19004;SDS011;9635;52.078;8.648;2023-04-03T14:53:05;4.22;;;0.90;;
19004;SDS011;9635;52.078;8.648;2023-04-03T14:58:12;5.32;;;0.98;;
19004;SDS011;9635;52.078;8.648;2023-04-03T15:03:17;2.95;;;1.20;;
19004;SDS011;9635;52.078;8.648;2023-04-03T15:08:23;2.45;;;0.90;;
19004;SDS011;9635;52.078;8.648;2023-04-03T15:13:29;3.08;;;1.10;;
19004;SDS011;9635;52.078;8.648;2023-04-03T15:18:33;3.30;;;0.88;;
19004;SDS011;9635;52.078;8.648;2023-04-03T15:23:39;3.03;;;0.90;;
19004;SDS011;9635;52.078;8.648;2023-04-03T15:28:44;2.13;;;1.08;;
19004;SDS011;9635;52.078;8.648;2023-04-03T15:33:47;2.35;;;1.10;;
19004;SDS011;9635;52.078;8.648;2023-04-03T15:38:50;3.30;;;1.00;;
19004;SDS011;9635;52.078;8.648;2023-04-03T15:43:55;1.88;;;1.10;;
19004;SDS011;9635;52.078;8.648;2023-04-03T15:48:58;2.40;;;0.90;;
19004;SDS011;9635;52.078;8.648;2023-04-03T15:54:01;3.22;;;1.20;;
19004;SDS011;9635;52.078;8.648;2023-04-03T15:59:05;6.05;;;1.08;;
19004;SDS011;9635;52.078;8.648;2023-04-03T16:04:08;4.28;;;1.00;;
19004;SDS011;9635;52.078;8.648;2023-04-03T16:09:12;10.07;;;2.67;;
19004;SDS011;9635;52.078;8.648;2023-04-03T16:14:16;4.20;;;1.67;;
19004;SDS011;9635;52.078;8.648;2023-04-03T16:19:19;2.08;;;0.93;;
19004;SDS011;9635;52.078;8.648;2023-04-03T16:24:26;1.90;;;0.90;;
19004;SDS011;9635;52.078;8.648;2023-04-03T16:29:30;2.47;;;1.10;;
19004;SDS011;9635;52.078;8.648;2023-04-03T16:34:33;3.97;;;1.33;;
19004;SDS011;9635;52.078;8.648;2023-04-03T16:39:36;4.03;;;1.20;;
19004;SDS011;9635;52.078;8.648;2023-04-03T16:44:41;2.35;;;1.13;;
19004;SDS011;9635;52.078;8.648;2023-04-03T16:49:44;3.80;;;1.40;;
19004;SDS011;9635;52.078;8.648;2023-04-03T16:54:47;3.47;;;1.10;;
19004;SDS011;9635;52.078;8.648;2023-04-03T16:59:51;5.13;;;1.08;;
19004;SDS011;9635;52.078;8.648;2023-04-03T17:04:55;3.30;;;0.88;;
19004;SDS011;9635;52.078;8.648;2023-04-03T17:09:57;2.33;;;0.98;;
19004;SDS011;9635;52.078;8.648;2023-04-03T17:15:02;2.60;;;1.08;;
19004;SDS011;9635;52.078;8.648;2023-04-03T17:20:06;3.90;;;1.25;;
19004;SDS011;9635;52.078;8.648;2023-04-03T17:25:10;6.13;;;1.60;;
19004;SDS011;9635;52.078;8.648;2023-04-03T17:30:15;3.58;;;1.40;;
19004;SDS011;9635;52.078;8.648;2023-04-03T17:35:18;2.25;;;1.50;;
19004;SDS011;9635;52.078;8.648;2023-04-03T17:40:21;4.07;;;1.73;;
19004;SDS011;9635;52.078;8.648;2023-04-03T17:45:25;3.75;;;2.20;;
19004;SDS011;9635;52.078;8.648;2023-04-03T17:50:28;2.15;;;1.48;;
19004;SDS011;9635;52.078;8.648;2023-04-03T17:55:31;4.70;;;1.50;;
19004;SDS011;9635;52.078;8.648;2023-04-03T18:00:35;5.70;;;1.67;;
19004;SDS011;9635;52.078;8.648;2023-04-03T18:05:38;3.53;;;1.70;;
19004;SDS011;9635;52.078;8.648;2023-04-03T18:10:42;4.13;;;1.42;;
19004;SDS011;9635;52.078;8.648;2023-04-03T18:15:46;3.08;;;1.05;;
19004;SDS011;9635;52.078;8.648;2023-04-03T18:20:50;1.77;;;0.90;;
19004;SDS011;9635;52.078;8.648;2023-04-03T18:25:53;3.05;;;1.48;;
19004;SDS011;9635;52.078;8.648;2023-04-03T18:30:58;4.55;;;1.35;;
19004;SDS011;9635;52.078;8.648;2023-04-03T18:36:02;3.45;;;1.60;;
19004;SDS011;9635;52.078;8.648;2023-04-03T18:41:06;2.65;;;1.10;;
19004;SDS011;9635;52.078;8.648;2023-04-03T18:46:11;2.03;;;1.80;;
19004;SDS011;9635;52.078;8.648;2023-04-03T18:51:14;5.38;;;1.63;;
19004;SDS011;9635;52.078;8.648;2023-04-03T18:56:17;5.93;;;1.77;;
19004;SDS011;9635;52.078;8.648;2023-04-03T19:01:21;3.63;;;1.60;;
19004;SDS011;9635;52.078;8.648;2023-04-03T19:06:24;3.60;;;1.55;;
19004;SDS011;9635;52.078;8.648;2023-04-03T19:11:27;3.13;;;1.60;;
19004;SDS011;9635;52.078;8.648;2023-04-03T19:16:32;2.40;;;1.52;;
19004;SDS011;9635;52.078;8.648;2023-04-03T19:21:35;4.55;;;1.73;;
19004;SDS011;9635;52.078;8.648;2023-04-03T19:26:41;6.35;;;1.80;;
19004;SDS011;9635;52.078;8.648;2023-04-03T19:31:46;2.97;;;1.52;;
19004;SDS011;9635;52.078;8.648;2023-04-03T19:36:48;7.28;;;1.58;;
19004;SDS011;9635;52.078;8.648;2023-04-03T19:41:52;4.82;;;1.73;;
19004;SDS011;9635;52.078;8.648;2023-04-03T19:46:56;2.63;;;1.85;;
19004;SDS011;9635;52.078;8.648;2023-04-03T19:51:59;4.78;;;2.13;;
19004;SDS011;9635;52.078;8.648;2023-04-03T19:57:02;6.45;;;2.03;;
19004;SDS011;9635;52.078;8.648;2023-04-03T20:02:07;7.70;;;2.33;;
19004;SDS011;9635;52.078;8.648;2023-04-03T20:07:10;3.65;;;1.95;;
19004;SDS011;9635;52.078;8.648;2023-04-03T20:12:12;3.00;;;1.90;;
19004;SDS011;9635;52.078;8.648;2023-04-03T20:17:17;7.30;;;2.10;;
19004;SDS011;9635;52.078;8.648;2023-04-03T20:22:19;4.53;;;2.00;;
19004;SDS011;9635;52.078;8.648;2023-04-03T20:27:22;3.92;;;1.80;;
19004;SDS011;9635;52.078;8.648;2023-04-03T20:32:27;6.05;;;1.95;;
19004;SDS011;9635;52.078;8.648;2023-04-03T20:37:30;6.88;;;2.30;;
19004;SDS011;9635;52.078;8.648;2023-04-03T20:42:33;8.77;;;3.13;;
19004;SDS011;9635;52.078;8.648;2023-04-03T20:47:37;5.07;;;2.72;;
19004;SDS011;9635;52.078;8.648;2023-04-03T20:52:40;5.15;;;3.15;;
19004;SDS011;9635;52.078;8.648;2023-04-03T20:57:43;10.15;;;3.30;;
19004;SDS011;9635;52.078;8.648;2023-04-03T21:02:56;9.75;;;3.67;;
19004;SDS011;9635;52.078;8.648;2023-04-03T21:19:22;15.30;;;5.78;;
19004;SDS011;9635;52.078;8.648;2023-04-03T21:24:26;8.52;;;3.90;;
19004;SDS011;9635;52.078;8.648;2023-04-03T21:29:28;10.15;;;3.45;;
19004;SDS011;9635;52.078;8.648;2023-04-03T21:34:33;9.15;;;3.53;;
19004;SDS011;9635;52.078;8.648;2023-04-03T21:39:36;9.38;;;3.35;;
19004;SDS011;9635;52.078;8.648;2023-04-03T21:44:38;7.65;;;2.85;;
19004;SDS011;9635;52.078;8.648;2023-04-03T21:49:43;3.97;;;2.67;;
19004;SDS011;9635;52.078;8.648;2023-04-03T21:54:47;9.65;;;3.25;;
19004;SDS011;9635;52.078;8.648;2023-04-03T21:59:50;5.63;;;2.70;;
19004;SDS011;9635;52.078;8.648;2023-04-03T22:04:55;6.32;;;3.13;;
19004;SDS011;9635;52.078;8.648;2023-04-03T22:09:57;8.65;;;2.80;;
19004;SDS011;9635;52.078;8.648;2023-04-03T22:15:00;5.15;;;2.28;;
19004;SDS011;9635;52.078;8.648;2023-04-03T22:20:05;6.88;;;1.98;;
19004;SDS011;9635;52.078;8.648;2023-04-03T22:25:09;5.82;;;2.58;;
19004;SDS011;9635;52.078;8.648;2023-04-03T22:30:12;6.38;;;2.17;;
19004;SDS011;9635;52.078;8.648;2023-04-03T22:35:17;4.90;;;2.53;;
19004;SDS011;9635;52.078;8.648;2023-04-03T22:40:20;5.53;;;2.55;;
19004;SDS011;9635;52.078;8.648;2023-04-03T22:45:23;7.68;;;2.38;;
19004;SDS011;9635;52.078;8.648;2023-04-03T22:50:27;7.75;;;2.28;;
19004;SDS011;9635;52.078;8.648;2023-04-03T22:55:29;6.00;;;2.60;;
19004;SDS011;9635;52.078;8.648;2023-04-03T23:00:32;11.23;;;2.22;;
19004;SDS011;9635;52.078;8.648;2023-04-03T23:05:39;3.80;;;2.17;;
19004;SDS011;9635;52.078;8.648;2023-04-03T23:10:41;4.75;;;2.72;;
19004;SDS011;9635;52.078;8.648;2023-04-03T23:15:50;5.25;;;2.20;;
19004;SDS011;9635;52.078;8.648;2023-04-03T23:20:57;8.13;;;2.60;;
19004;SDS011;9635;52.078;8.648;2023-04-03T23:26:00;6.38;;;2.20;;
19004;SDS011;9635;52.078;8.648;2023-04-03T23:31:03;4.63;;;2.20;;
19004;SDS011;9635;52.078;8.648;2023-04-03T23:36:08;3.20;;;2.22;;
19004;SDS011;9635;52.078;8.648;2023-04-03T23:41:13;4.60;;;2.13;;
19004;SDS011;9635;52.078;8.648;2023-04-03T23:46:16;3.80;;;2.20;;
19004;SDS011;9635;52.078;8.648;2023-04-03T23:51:21;4.85;;;2.20;;
19004;SDS011;9635;52.078;8.648;2023-04-03T23:56:24;6.20;;;1.80;;
